sensor_id;sensor_type;location;lat;lon;timestamp;temperature;humidity
35647;DHT22;28680;45.642;13.756;2023-10-19T00:00:33;14.90;99.90
35647;DHT22;28680;45.642;13.756;2023-10-19T00:03:04;14.90;99.90
35647;DHT22;28680;45.642;13.756;2023-10-19T00:05:34;15.00;99.90
35647;DHT22;28680;45.642;13.756;2023-10-19T00:08:04;15.00;99.90
35647;DHT22;28680;45.642;13.756;2023-10-19T00:10:41;15.00;99.90
35647;DHT22;28680;45.642;13.756;2023-10-19T00:13:09;15.00;99.90
35647;DHT22;28680;45.642;13.756;2023-10-19T00:15:40;15.00;99.90
35647;DHT22;28680;45.642;13.756;2023-10-19T00:18:07;15.10;99.90
35647;DHT22;28680;45.642;13.756;2023-10-19T00:20:42;15.10;99.90
35647;DHT22;28680;45.642;13.756;2023-10-19T00:23:11;15.10;99.90
35647;DHT22;28680;45.642;13.756;2023-10-19T00:25:39;15.10;99.90
35647;DHT22;28680;45.642;13.756;2023-10-19T00:28:07;15.10;99.90
35647;DHT22;28680;45.642;13.756;2023-10-19T00:30:32;15.20;99.90
35647;DHT22;28680;45.642;13.756;2023-10-19T00:33:04;15.20;99.90
35647;DHT22;28680;45.642;13.756;2023-10-19T00:35:30;15.20;99.90
35647;DHT22;28680;45.642;13.756;2023-10-19T00:38:07;15.20;99.90
35647;DHT22;28680;45.642;13.756;2023-10-19T00:40:52;15.30;99.90
35647;DHT22;28680;45.642;13.756;2023-10-19T00:43:42;15.30;99.90
35647;DHT22;28680;45.642;13.756;2023-10-19T00:46:11;15.30;99.90
35647;DHT22;28680;45.642;13.756;2023-10-19T00:48:47;15.30;99.90
35647;DHT22;28680;45.642;13.756;2023-10-19T00:51:16;15.40;99.90
35647;DHT22;28680;45.642;13.756;2023-10-19T00:56:26;15.40;99.90
35647;DHT22;28680;45.642;13.756;2023-10-19T00:58:57;15.40;99.90
35647;DHT22;28680;45.642;13.756;2023-10-19T01:01:27;15.50;99.90
35647;DHT22;28680;45.642;13.756;2023-10-19T01:03:54;15.50;99.90
35647;DHT22;28680;45.642;13.756;2023-10-19T01:06:22;15.50;99.90
35647;DHT22;28680;45.642;13.756;2023-10-19T01:08:48;15.50;99.90
35647;DHT22;28680;45.642;13.756;2023-10-19T01:11:16;15.50;99.90
35647;DHT22;28680;45.642;13.756;2023-10-19T01:13:45;15.50;99.90
35647;DHT22;28680;45.642;13.756;2023-10-19T01:16:16;15.50;99.90
35647;DHT22;28680;45.642;13.756;2023-10-19T01:18:49;15.50;99.90
35647;DHT22;28680;45.642;13.756;2023-10-19T01:21:22;15.50;99.90
35647;DHT22;28680;45.642;13.756;2023-10-19T01:23:50;15.50;99.90
35647;DHT22;28680;45.642;13.756;2023-10-19T01:26:16;15.50;99.90
35647;DHT22;28680;45.642;13.756;2023-10-19T01:28:52;15.60;99.90
35647;DHT22;28680;45.642;13.756;2023-10-19T01:31:21;15.60;99.90
35647;DHT22;28680;45.642;13.756;2023-10-19T01:33:53;15.60;99.90
35647;DHT22;28680;45.642;13.756;2023-10-19T01:36:26;15.60;99.90
35647;DHT22;28680;45.642;13.756;2023-10-19T01:38:55;15.60;99.90
35647;DHT22;28680;45.642;13.756;2023-10-19T01:41:24;15.60;99.90
35647;DHT22;28680;45.642;13.756;2023-10-19T01:43:52;15.70;99.90
35647;DHT22;28680;45.642;13.756;2023-10-19T01:46:21;15.70;99.90
35647;DHT22;28680;45.642;13.756;2023-10-19T01:48:48;15.70;99.90
35647;DHT22;28680;45.642;13.756;2023-10-19T01:51:15;15.70;99.90
35647;DHT22;28680;45.642;13.756;2023-10-19T01:53:42;15.70;99.90
35647;DHT22;28680;45.642;13.756;2023-10-19T01:56:12;15.80;99.90
35647;DHT22;28680;45.642;13.756;2023-10-19T01:58:39;15.80;99.90
35647;DHT22;28680;45.642;13.756;2023-10-19T02:01:08;15.90;99.90
35647;DHT22;28680;45.642;13.756;2023-10-19T02:03:44;15.90;99.90
35647;DHT22;28680;45.642;13.756;2023-10-19T02:06:10;15.90;99.90
35647;DHT22;28680;45.642;13.756;2023-10-19T02:08:49;15.90;99.90
35647;DHT22;28680;45.642;13.756;2023-10-19T02:11:20;15.90;99.90
35647;DHT22;28680;45.642;13.756;2023-10-19T02:13:47;15.90;99.90
35647;DHT22;28680;45.642;13.756;2023-10-19T02:16:21;16.00;99.90
35647;DHT22;28680;45.642;13.756;2023-10-19T02:18:51;15.90;99.90
35647;DHT22;28680;45.642;13.756;2023-10-19T02:21:18;15.90;99.90
35647;DHT22;28680;45.642;13.756;2023-10-19T02:23:55;16.00;99.90
35647;DHT22;28680;45.642;13.756;2023-10-19T02:26:23;16.00;99.90
35647;DHT22;28680;45.642;13.756;2023-10-19T02:28:51;16.00;99.90
35647;DHT22;28680;45.642;13.756;2023-10-19T02:31:17;16.00;99.90
35647;DHT22;28680;45.642;13.756;2023-10-19T02:33:53;16.00;99.90
35647;DHT22;28680;45.642;13.756;2023-10-19T02:36:25;16.00;99.90
35647;DHT22;28680;45.642;13.756;2023-10-19T02:38:57;15.90;99.90
35647;DHT22;28680;45.642;13.756;2023-10-19T02:41:26;15.80;99.90
35647;DHT22;28680;45.642;13.756;2023-10-19T02:43:52;15.90;99.90
35647;DHT22;28680;45.642;13.756;2023-10-19T02:46:28;15.90;99.90
35647;DHT22;28680;45.642;13.756;2023-10-19T02:48:53;15.80;99.90
35647;DHT22;28680;45.642;13.756;2023-10-19T02:51:19;15.90;99.90
35647;DHT22;28680;45.642;13.756;2023-10-19T02:53:45;15.90;99.90
35647;DHT22;28680;45.642;13.756;2023-10-19T02:56:15;15.90;99.90
35647;DHT22;28680;45.642;13.756;2023-10-19T02:58:45;16.00;99.90
35647;DHT22;28680;45.642;13.756;2023-10-19T03:01:17;16.00;99.90
35647;DHT22;28680;45.642;13.756;2023-10-19T03:03:47;16.00;99.90
35647;DHT22;28680;45.642;13.756;2023-10-19T03:06:17;16.00;99.90
35647;DHT22;28680;45.642;13.756;2023-10-19T03:08:45;16.00;99.90
35647;DHT22;28680;45.642;13.756;2023-10-19T03:11:12;16.00;99.90
35647;DHT22;28680;45.642;13.756;2023-10-19T03:13:39;15.90;99.90
35647;DHT22;28680;45.642;13.756;2023-10-19T03:16:07;15.90;99.90
35647;DHT22;28680;45.642;13.756;2023-10-19T03:18:33;16.00;99.90
35647;DHT22;28680;45.642;13.756;2023-10-19T03:21:00;16.00;99.90
35647;DHT22;28680;45.642;13.756;2023-10-19T03:23:26;15.90;99.90
35647;DHT22;28680;45.642;13.756;2023-10-19T03:25:54;15.90;99.90
35647;DHT22;28680;45.642;13.756;2023-10-19T03:28:22;16.00;99.90
35647;DHT22;28680;45.642;13.756;2023-10-19T03:30:51;16.00;99.90
35647;DHT22;28680;45.642;13.756;2023-10-19T03:33:17;15.90;99.90
35647;DHT22;28680;45.642;13.756;2023-10-19T03:35:43;15.80;99.90
35647;DHT22;28680;45.642;13.756;2023-10-19T03:38:09;15.80;99.90
35647;DHT22;28680;45.642;13.756;2023-10-19T03:40:42;15.80;99.90
35647;DHT22;28680;45.642;13.756;2023-10-19T03:43:17;15.90;99.90
35647;DHT22;28680;45.642;13.756;2023-10-19T03:45:44;15.80;99.90
35647;DHT22;28680;45.642;13.756;2023-10-19T03:48:17;15.80;99.90
35647;DHT22;28680;45.642;13.756;2023-10-19T03:50:44;15.90;99.90
35647;DHT22;28680;45.642;13.756;2023-10-19T03:53:11;16.00;99.90
35647;DHT22;28680;45.642;13.756;2023-10-19T03:55:38;16.00;99.90
35647;DHT22;28680;45.642;13.756;2023-10-19T03:58:04;16.10;99.90
35647;DHT22;28680;45.642;13.756;2023-10-19T04:00:30;16.10;99.90
35647;DHT22;28680;45.642;13.756;2023-10-19T04:02:58;16.20;99.90
35647;DHT22;28680;45.642;13.756;2023-10-19T04:05:24;16.10;99.90
35647;DHT22;28680;45.642;13.756;2023-10-19T04:07:51;16.10;99.90
35647;DHT22;28680;45.642;13.756;2023-10-19T04:10:21;16.20;99.90
35647;DHT22;28680;45.642;13.756;2023-10-19T04:12:56;16.20;99.90
35647;DHT22;28680;45.642;13.756;2023-10-19T04:15:25;16.20;99.90
35647;DHT22;28680;45.642;13.756;2023-10-19T04:17:52;16.10;99.90
35647;DHT22;28680;45.642;13.756;2023-10-19T04:20:20;16.10;99.90
35647;DHT22;28680;45.642;13.756;2023-10-19T04:22:49;16.00;99.90
35647;DHT22;28680;45.642;13.756;2023-10-19T04:25:16;16.00;99.90
35647;DHT22;28680;45.642;13.756;2023-10-19T04:27:42;16.10;99.90
35647;DHT22;28680;45.642;13.756;2023-10-19T04:30:09;16.10;99.90
35647;DHT22;28680;45.642;13.756;2023-10-19T04:32:44;16.00;99.90
35647;DHT22;28680;45.642;13.756;2023-10-19T04:35:11;16.00;99.90
35647;DHT22;28680;45.642;13.756;2023-10-19T04:37:38;16.00;99.90
35647;DHT22;28680;45.642;13.756;2023-10-19T04:40:11;16.00;99.90
35647;DHT22;28680;45.642;13.756;2023-10-19T04:42:39;16.00;99.90
35647;DHT22;28680;45.642;13.756;2023-10-19T04:45:05;16.00;99.90
35647;DHT22;28680;45.642;13.756;2023-10-19T04:47:31;16.10;99.90
35647;DHT22;28680;45.642;13.756;2023-10-19T04:50:03;15.90;99.90
35647;DHT22;28680;45.642;13.756;2023-10-19T04:52:29;16.10;99.90
35647;DHT22;28680;45.642;13.756;2023-10-19T04:54:55;16.10;99.90
35647;DHT22;28680;45.642;13.756;2023-10-19T04:57:21;16.10;99.90
35647;DHT22;28680;45.642;13.756;2023-10-19T04:59:46;16.10;99.90
35647;DHT22;28680;45.642;13.756;2023-10-19T05:02:12;16.10;99.90
35647;DHT22;28680;45.642;13.756;2023-10-19T05:04:38;16.10;99.90
35647;DHT22;28680;45.642;13.756;2023-10-19T05:07:04;16.00;99.90
35647;DHT22;28680;45.642;13.756;2023-10-19T05:09:29;16.10;99.90
35647;DHT22;28680;45.642;13.756;2023-10-19T05:11:55;16.10;99.90
35647;DHT22;28680;45.642;13.756;2023-10-19T05:14:22;16.10;99.90
35647;DHT22;28680;45.642;13.756;2023-10-19T05:16:48;16.00;99.90
35647;DHT22;28680;45.642;13.756;2023-10-19T05:19:14;16.10;99.90
35647;DHT22;28680;45.642;13.756;2023-10-19T05:21:39;16.10;99.90
35647;DHT22;28680;45.642;13.756;2023-10-19T05:24:05;16.10;99.90
35647;DHT22;28680;45.642;13.756;2023-10-19T05:26:33;16.10;99.90
35647;DHT22;28680;45.642;13.756;2023-10-19T05:28:59;16.10;99.90
35647;DHT22;28680;45.642;13.756;2023-10-19T05:31:24;16.10;99.90
35647;DHT22;28680;45.642;13.756;2023-10-19T05:33:50;16.20;99.90
35647;DHT22;28680;45.642;13.756;2023-10-19T05:36:16;16.20;99.90
35647;DHT22;28680;45.642;13.756;2023-10-19T05:38:43;16.30;99.90
35647;DHT22;28680;45.642;13.756;2023-10-19T05:41:09;16.20;99.90
35647;DHT22;28680;45.642;13.756;2023-10-19T05:43:37;16.30;99.90
35647;DHT22;28680;45.642;13.756;2023-10-19T05:46:03;16.30;99.90
35647;DHT22;28680;45.642;13.756;2023-10-19T05:48:28;16.30;99.90
35647;DHT22;28680;45.642;13.756;2023-10-19T05:50:54;16.30;99.90
35647;DHT22;28680;45.642;13.756;2023-10-19T05:53:20;16.40;99.90
35647;DHT22;28680;45.642;13.756;2023-10-19T05:55:48;16.40;99.90
35647;DHT22;28680;45.642;13.756;2023-10-19T05:58:14;16.30;99.90
35647;DHT22;28680;45.642;13.756;2023-10-19T06:00:40;16.40;99.90
35647;DHT22;28680;45.642;13.756;2023-10-19T06:03:07;16.40;99.90
35647;DHT22;28680;45.642;13.756;2023-10-19T06:05:33;16.40;99.90
35647;DHT22;28680;45.642;13.756;2023-10-19T06:07:59;16.40;99.90
35647;DHT22;28680;45.642;13.756;2023-10-19T06:10:26;16.40;99.90
35647;DHT22;28680;45.642;13.756;2023-10-19T06:12:52;16.50;99.90
35647;DHT22;28680;45.642;13.756;2023-10-19T06:15:19;16.50;99.90
35647;DHT22;28680;45.642;13.756;2023-10-19T06:17:51;16.60;99.90
35647;DHT22;28680;45.642;13.756;2023-10-19T06:20:18;16.60;99.90
35647;DHT22;28680;45.642;13.756;2023-10-19T06:22:50;16.60;99.90
35647;DHT22;28680;45.642;13.756;2023-10-19T06:25:20;16.60;99.90
35647;DHT22;28680;45.642;13.756;2023-10-19T06:27:47;16.60;99.90
35647;DHT22;28680;45.642;13.756;2023-10-19T06:30:16;16.60;99.90
35647;DHT22;28680;45.642;13.756;2023-10-19T06:32:50;16.60;99.90
35647;DHT22;28680;45.642;13.756;2023-10-19T06:35:16;16.60;99.90
35647;DHT22;28680;45.642;13.756;2023-10-19T06:37:42;16.70;99.90
35647;DHT22;28680;45.642;13.756;2023-10-19T06:40:09;16.90;99.90
35647;DHT22;28680;45.642;13.756;2023-10-19T06:42:37;16.90;99.90
35647;DHT22;28680;45.642;13.756;2023-10-19T06:45:03;16.90;99.90
35647;DHT22;28680;45.642;13.756;2023-10-19T06:47:28;16.90;99.90
35647;DHT22;28680;45.642;13.756;2023-10-19T06:49:55;16.80;99.90
35647;DHT22;28680;45.642;13.756;2023-10-19T06:52:21;16.80;99.90
35647;DHT22;28680;45.642;13.756;2023-10-19T06:54:47;16.80;99.90
35647;DHT22;28680;45.642;13.756;2023-10-19T06:57:13;16.70;99.90
35647;DHT22;28680;45.642;13.756;2023-10-19T06:59:38;16.70;99.90
35647;DHT22;28680;45.642;13.756;2023-10-19T07:02:04;16.70;99.90
35647;DHT22;28680;45.642;13.756;2023-10-19T07:04:32;16.70;99.90
35647;DHT22;28680;45.642;13.756;2023-10-19T07:06:57;16.70;99.90
35647;DHT22;28680;45.642;13.756;2023-10-19T07:09:23;16.70;99.90
35647;DHT22;28680;45.642;13.756;2023-10-19T07:11:49;16.70;99.90
35647;DHT22;28680;45.642;13.756;2023-10-19T07:14:19;16.70;99.90
35647;DHT22;28680;45.642;13.756;2023-10-19T07:16:44;16.80;99.90
35647;DHT22;28680;45.642;13.756;2023-10-19T07:19:10;16.80;99.90
35647;DHT22;28680;45.642;13.756;2023-10-19T07:21:36;16.80;99.90
35647;DHT22;28680;45.642;13.756;2023-10-19T07:24:03;16.80;99.90
35647;DHT22;28680;45.642;13.756;2023-10-19T07:26:31;16.90;99.90
35647;DHT22;28680;45.642;13.756;2023-10-19T07:28:59;16.80;99.90
35647;DHT22;28680;45.642;13.756;2023-10-19T07:31:25;16.80;99.90
35647;DHT22;28680;45.642;13.756;2023-10-19T07:33:53;16.80;99.90
35647;DHT22;28680;45.642;13.756;2023-10-19T07:36:21;16.80;99.90
35647;DHT22;28680;45.642;13.756;2023-10-19T07:38:46;16.80;99.90
35647;DHT22;28680;45.642;13.756;2023-10-19T07:41:13;16.80;99.90
35647;DHT22;28680;45.642;13.756;2023-10-19T07:43:39;16.70;99.90
35647;DHT22;28680;45.642;13.756;2023-10-19T07:46:04;16.70;99.90
35647;DHT22;28680;45.642;13.756;2023-10-19T07:48:30;16.80;99.90
35647;DHT22;28680;45.642;13.756;2023-10-19T07:50:56;16.70;99.90
35647;DHT22;28680;45.642;13.756;2023-10-19T07:53:22;16.70;99.90
35647;DHT22;28680;45.642;13.756;2023-10-19T07:55:48;16.80;99.90
35647;DHT22;28680;45.642;13.756;2023-10-19T07:58:13;16.80;99.90
35647;DHT22;28680;45.642;13.756;2023-10-19T08:00:39;16.70;99.90
35647;DHT22;28680;45.642;13.756;2023-10-19T08:03:07;16.70;99.90
35647;DHT22;28680;45.642;13.756;2023-10-19T08:05:34;16.70;99.90
35647;DHT22;28680;45.642;13.756;2023-10-19T08:08:00;16.70;99.90
35647;DHT22;28680;45.642;13.756;2023-10-19T08:10:26;16.70;99.90
35647;DHT22;28680;45.642;13.756;2023-10-19T08:12:54;16.80;99.90
35647;DHT22;28680;45.642;13.756;2023-10-19T08:15:20;16.80;99.90
35647;DHT22;28680;45.642;13.756;2023-10-19T08:17:47;16.80;99.90
35647;DHT22;28680;45.642;13.756;2023-10-19T08:20:14;16.80;99.90
35647;DHT22;28680;45.642;13.756;2023-10-19T08:22:48;16.90;99.90
35647;DHT22;28680;45.642;13.756;2023-10-19T08:25:14;16.80;99.90
35647;DHT22;28680;45.642;13.756;2023-10-19T08:27:44;16.80;99.90
35647;DHT22;28680;45.642;13.756;2023-10-19T08:30:11;16.90;99.90
35647;DHT22;28680;45.642;13.756;2023-10-19T08:32:38;16.90;99.90
35647;DHT22;28680;45.642;13.756;2023-10-19T08:35:05;16.90;99.90
35647;DHT22;28680;45.642;13.756;2023-10-19T08:37:31;17.00;99.90
35647;DHT22;28680;45.642;13.756;2023-10-19T08:39:57;17.10;99.90
35647;DHT22;28680;45.642;13.756;2023-10-19T08:42:23;17.10;99.90
35647;DHT22;28680;45.642;13.756;2023-10-19T08:44:49;17.20;99.90
35647;DHT22;28680;45.642;13.756;2023-10-19T08:47:15;17.20;99.90
35647;DHT22;28680;45.642;13.756;2023-10-19T08:49:41;17.20;99.90
35647;DHT22;28680;45.642;13.756;2023-10-19T08:52:07;17.20;99.90
35647;DHT22;28680;45.642;13.756;2023-10-19T08:54:33;17.20;99.90
35647;DHT22;28680;45.642;13.756;2023-10-19T08:56:59;17.20;99.90
35647;DHT22;28680;45.642;13.756;2023-10-19T08:59:25;17.20;99.90
35647;DHT22;28680;45.642;13.756;2023-10-19T09:02:01;17.30;99.90
35647;DHT22;28680;45.642;13.756;2023-10-19T09:04:28;17.30;99.90
35647;DHT22;28680;45.642;13.756;2023-10-19T09:06:54;17.40;99.90
35647;DHT22;28680;45.642;13.756;2023-10-19T09:09:20;17.50;99.90
35647;DHT22;28680;45.642;13.756;2023-10-19T09:11:46;17.60;99.90
35647;DHT22;28680;45.642;13.756;2023-10-19T09:14:14;17.60;99.90
35647;DHT22;28680;45.642;13.756;2023-10-19T09:16:55;17.60;99.90
35647;DHT22;28680;45.642;13.756;2023-10-19T09:19:35;17.60;99.90
35647;DHT22;28680;45.642;13.756;2023-10-19T09:22:02;17.70;99.90
35647;DHT22;28680;45.642;13.756;2023-10-19T09:24:36;17.70;99.90
35647;DHT22;28680;45.642;13.756;2023-10-19T09:27:03;17.60;99.90
35647;DHT22;28680;45.642;13.756;2023-10-19T09:29:29;17.60;99.90
35647;DHT22;28680;45.642;13.756;2023-10-19T09:31:59;17.60;99.90
35647;DHT22;28680;45.642;13.756;2023-10-19T09:34:32;17.60;99.90
35647;DHT22;28680;45.642;13.756;2023-10-19T09:36:59;17.70;99.90
35647;DHT22;28680;45.642;13.756;2023-10-19T09:39:27;17.60;99.90
35647;DHT22;28680;45.642;13.756;2023-10-19T09:42:03;17.60;99.90
35647;DHT22;28680;45.642;13.756;2023-10-19T09:44:32;17.60;99.90
35647;DHT22;28680;45.642;13.756;2023-10-19T09:47:00;17.50;99.90
35647;DHT22;28680;45.642;13.756;2023-10-19T09:49:29;17.50;99.90
35647;DHT22;28680;45.642;13.756;2023-10-19T09:51:55;17.50;99.90
35647;DHT22;28680;45.642;13.756;2023-10-19T09:54:22;17.50;99.90
35647;DHT22;28680;45.642;13.756;2023-10-19T09:56:52;17.50;99.90
35647;DHT22;28680;45.642;13.756;2023-10-19T10:04:32;17.60;99.90
35647;DHT22;28680;45.642;13.756;2023-10-19T10:06:57;17.60;99.90
35647;DHT22;28680;45.642;13.756;2023-10-19T10:09:28;17.70;99.90
35647;DHT22;28680;45.642;13.756;2023-10-19T10:11:55;17.90;99.90
35647;DHT22;28680;45.642;13.756;2023-10-19T10:14:22;18.00;99.90
35647;DHT22;28680;45.642;13.756;2023-10-19T10:16:59;18.00;99.90
35647;DHT22;28680;45.642;13.756;2023-10-19T10:19:26;18.00;99.90
35647;DHT22;28680;45.642;13.756;2023-10-19T10:24:53;18.60;99.90
35647;DHT22;28680;45.642;13.756;2023-10-19T10:27:20;18.60;99.90
35647;DHT22;28680;45.642;13.756;2023-10-19T10:32:42;19.20;99.90
35647;DHT22;28680;45.642;13.756;2023-10-19T10:35:08;19.10;99.90
35647;DHT22;28680;45.642;13.756;2023-10-19T10:37:36;18.70;99.90
35647;DHT22;28680;45.642;13.756;2023-10-19T10:40:02;18.60;99.90
35647;DHT22;28680;45.642;13.756;2023-10-19T10:42:29;19.10;99.90
35647;DHT22;28680;45.642;13.756;2023-10-19T10:44:55;19.50;99.90
35647;DHT22;28680;45.642;13.756;2023-10-19T10:47:22;19.80;99.90
35647;DHT22;28680;45.642;13.756;2023-10-19T10:54:51;19.90;99.90
35647;DHT22;28680;45.642;13.756;2023-10-19T10:57:18;19.50;99.90
35647;DHT22;28680;45.642;13.756;2023-10-19T10:59:44;19.50;99.90
35647;DHT22;28680;45.642;13.756;2023-10-19T11:02:18;19.60;99.90
35647;DHT22;28680;45.642;13.756;2023-10-19T11:04:44;19.60;99.90
35647;DHT22;28680;45.642;13.756;2023-10-19T11:07:17;19.90;99.90
35647;DHT22;28680;45.642;13.756;2023-10-19T11:09:43;20.10;99.90
35647;DHT22;28680;45.642;13.756;2023-10-19T11:12:11;20.20;99.90
35647;DHT22;28680;45.642;13.756;2023-10-19T11:14:37;20.30;99.90
35647;DHT22;28680;45.642;13.756;2023-10-19T11:17:12;20.30;99.90
35647;DHT22;28680;45.642;13.756;2023-10-19T11:19:41;20.10;99.90
35647;DHT22;28680;45.642;13.756;2023-10-19T11:22:09;19.90;99.90
35647;DHT22;28680;45.642;13.756;2023-10-19T11:24:35;19.90;99.90
35647;DHT22;28680;45.642;13.756;2023-10-19T11:27:05;19.40;99.90
35647;DHT22;28680;45.642;13.756;2023-10-19T11:29:33;19.20;99.90
35647;DHT22;28680;45.642;13.756;2023-10-19T11:31:59;19.40;99.90
35647;DHT22;28680;45.642;13.756;2023-10-19T11:34:26;19.50;99.90
35647;DHT22;28680;45.642;13.756;2023-10-19T11:36:54;19.90;99.90
35647;DHT22;28680;45.642;13.756;2023-10-19T11:39:22;19.80;99.90
35647;DHT22;28680;45.642;13.756;2023-10-19T11:41:49;19.20;99.90
35647;DHT22;28680;45.642;13.756;2023-10-19T11:44:15;18.90;99.90
35647;DHT22;28680;45.642;13.756;2023-10-19T11:46:40;18.60;99.90
35647;DHT22;28680;45.642;13.756;2023-10-19T11:49:06;18.50;99.90
35647;DHT22;28680;45.642;13.756;2023-10-19T11:51:31;18.40;99.90
35647;DHT22;28680;45.642;13.756;2023-10-19T11:53:57;18.30;99.90
35647;DHT22;28680;45.642;13.756;2023-10-19T11:56:23;18.30;99.90
35647;DHT22;28680;45.642;13.756;2023-10-19T11:58:50;18.30;99.90
35647;DHT22;28680;45.642;13.756;2023-10-19T12:01:16;18.30;99.90
35647;DHT22;28680;45.642;13.756;2023-10-19T12:03:44;18.30;99.90
35647;DHT22;28680;45.642;13.756;2023-10-19T12:06:13;18.30;99.90
35647;DHT22;28680;45.642;13.756;2023-10-19T12:08:44;18.20;99.90
35647;DHT22;28680;45.642;13.756;2023-10-19T12:11:10;18.20;99.90
35647;DHT22;28680;45.642;13.756;2023-10-19T12:13:45;18.20;99.90
35647;DHT22;28680;45.642;13.756;2023-10-19T12:16:11;18.40;99.90
35647;DHT22;28680;45.642;13.756;2023-10-19T12:18:49;18.30;99.90
35647;DHT22;28680;45.642;13.756;2023-10-19T12:21:15;18.40;99.90
35647;DHT22;28680;45.642;13.756;2023-10-19T12:23:43;18.40;99.90
35647;DHT22;28680;45.642;13.756;2023-10-19T12:26:09;18.40;99.90
35647;DHT22;28680;45.642;13.756;2023-10-19T12:28:38;18.50;99.90
35647;DHT22;28680;45.642;13.756;2023-10-19T12:31:04;18.40;99.90
35647;DHT22;28680;45.642;13.756;2023-10-19T12:33:30;18.50;99.90
35647;DHT22;28680;45.642;13.756;2023-10-19T12:35:56;18.50;99.90
35647;DHT22;28680;45.642;13.756;2023-10-19T12:38:23;18.70;99.90
35647;DHT22;28680;45.642;13.756;2023-10-19T12:40:49;18.90;99.90
35647;DHT22;28680;45.642;13.756;2023-10-19T12:43:16;18.90;99.90
35647;DHT22;28680;45.642;13.756;2023-10-19T12:45:44;18.80;99.90
35647;DHT22;28680;45.642;13.756;2023-10-19T12:48:16;18.70;99.90
35647;DHT22;28680;45.642;13.756;2023-10-19T12:50:42;18.60;99.90
35647;DHT22;28680;45.642;13.756;2023-10-19T12:53:08;18.60;99.90
35647;DHT22;28680;45.642;13.756;2023-10-19T12:55:34;18.40;99.90
35647;DHT22;28680;45.642;13.756;2023-10-19T12:58:02;18.40;99.90
35647;DHT22;28680;45.642;13.756;2023-10-19T13:00:40;18.40;99.90
35647;DHT22;28680;45.642;13.756;2023-10-19T13:03:14;18.30;99.90
35647;DHT22;28680;45.642;13.756;2023-10-19T13:05:40;18.30;99.90
35647;DHT22;28680;45.642;13.756;2023-10-19T13:08:09;18.40;99.90
35647;DHT22;28680;45.642;13.756;2023-10-19T13:10:38;18.60;99.90
35647;DHT22;28680;45.642;13.756;2023-10-19T13:13:08;18.50;99.90
35647;DHT22;28680;45.642;13.756;2023-10-19T13:15:37;18.40;99.90
35647;DHT22;28680;45.642;13.756;2023-10-19T13:18:04;18.40;99.90
35647;DHT22;28680;45.642;13.756;2023-10-19T13:20:31;18.30;99.90
35647;DHT22;28680;45.642;13.756;2023-10-19T13:23:03;18.30;99.90
35647;DHT22;28680;45.642;13.756;2023-10-19T13:25:32;18.40;99.90
35647;DHT22;28680;45.642;13.756;2023-10-19T13:28:05;18.30;99.90
35647;DHT22;28680;45.642;13.756;2023-10-19T13:30:41;18.40;99.90
35647;DHT22;28680;45.642;13.756;2023-10-19T13:33:07;18.30;99.90
35647;DHT22;28680;45.642;13.756;2023-10-19T13:35:38;18.30;99.90
35647;DHT22;28680;45.642;13.756;2023-10-19T13:38:05;18.30;99.90
35647;DHT22;28680;45.642;13.756;2023-10-19T13:40:31;18.30;99.90
35647;DHT22;28680;45.642;13.756;2023-10-19T13:42:57;18.20;99.90
35647;DHT22;28680;45.642;13.756;2023-10-19T13:45:24;18.20;99.90
35647;DHT22;28680;45.642;13.756;2023-10-19T13:47:49;18.20;99.90
35647;DHT22;28680;45.642;13.756;2023-10-19T13:50:16;18.20;99.90
35647;DHT22;28680;45.642;13.756;2023-10-19T13:52:53;18.30;99.90
35647;DHT22;28680;45.642;13.756;2023-10-19T13:55:19;18.20;99.90
35647;DHT22;28680;45.642;13.756;2023-10-19T13:57:46;18.20;99.90
35647;DHT22;28680;45.642;13.756;2023-10-19T14:00:13;18.20;99.90
35647;DHT22;28680;45.642;13.756;2023-10-19T14:02:45;18.20;99.90
35647;DHT22;28680;45.642;13.756;2023-10-19T14:05:12;18.20;99.90
35647;DHT22;28680;45.642;13.756;2023-10-19T14:07:38;18.20;99.90
35647;DHT22;28680;45.642;13.756;2023-10-19T14:10:05;18.20;99.90
35647;DHT22;28680;45.642;13.756;2023-10-19T14:12:32;18.30;99.90
35647;DHT22;28680;45.642;13.756;2023-10-19T14:14:58;18.30;99.90
35647;DHT22;28680;45.642;13.756;2023-10-19T14:17:24;18.30;99.90
35647;DHT22;28680;45.642;13.756;2023-10-19T14:19:50;18.20;99.90
35647;DHT22;28680;45.642;13.756;2023-10-19T14:22:16;18.20;99.90
35647;DHT22;28680;45.642;13.756;2023-10-19T14:24:44;18.20;99.90
35647;DHT22;28680;45.642;13.756;2023-10-19T14:27:10;18.30;99.90
35647;DHT22;28680;45.642;13.756;2023-10-19T14:29:36;18.20;99.90
35647;DHT22;28680;45.642;13.756;2023-10-19T14:32:01;18.20;99.90
35647;DHT22;28680;45.642;13.756;2023-10-19T14:34:28;18.20;99.90
35647;DHT22;28680;45.642;13.756;2023-10-19T14:36:54;18.20;99.90
35647;DHT22;28680;45.642;13.756;2023-10-19T14:39:20;18.10;99.90
35647;DHT22;28680;45.642;13.756;2023-10-19T14:41:46;18.10;99.90
35647;DHT22;28680;45.642;13.756;2023-10-19T14:44:11;18.10;99.90
35647;DHT22;28680;45.642;13.756;2023-10-19T14:46:37;18.10;99.90
35647;DHT22;28680;45.642;13.756;2023-10-19T14:49:03;18.20;99.90
35647;DHT22;28680;45.642;13.756;2023-10-19T14:51:28;18.30;99.90
35647;DHT22;28680;45.642;13.756;2023-10-19T14:53:54;18.30;99.90
35647;DHT22;28680;45.642;13.756;2023-10-19T14:56:20;18.30;99.90
35647;DHT22;28680;45.642;13.756;2023-10-19T14:58:46;18.30;99.90
35647;DHT22;28680;45.642;13.756;2023-10-19T15:01:12;18.30;99.90
35647;DHT22;28680;45.642;13.756;2023-10-19T15:03:42;18.30;99.90
35647;DHT22;28680;45.642;13.756;2023-10-19T15:06:08;18.30;99.90
35647;DHT22;28680;45.642;13.756;2023-10-19T15:08:34;18.20;99.90
35647;DHT22;28680;45.642;13.756;2023-10-19T15:10:59;18.30;99.90
35647;DHT22;28680;45.642;13.756;2023-10-19T15:13:25;18.30;99.90
35647;DHT22;28680;45.642;13.756;2023-10-19T15:15:51;18.20;99.90
35647;DHT22;28680;45.642;13.756;2023-10-19T15:18:16;18.20;99.90
35647;DHT22;28680;45.642;13.756;2023-10-19T15:20:43;18.10;99.90
35647;DHT22;28680;45.642;13.756;2023-10-19T15:23:09;18.20;99.90
35647;DHT22;28680;45.642;13.756;2023-10-19T15:25:36;18.20;99.90
35647;DHT22;28680;45.642;13.756;2023-10-19T15:28:02;18.10;99.90
35647;DHT22;28680;45.642;13.756;2023-10-19T15:30:27;18.00;99.90
35647;DHT22;28680;45.642;13.756;2023-10-19T15:32:54;18.00;99.90
35647;DHT22;28680;45.642;13.756;2023-10-19T15:35:20;18.10;99.90
35647;DHT22;28680;45.642;13.756;2023-10-19T15:37:52;18.10;99.90